Latest Weather Observations for South Johnstone

IDQ60801

Issued at 11:35 am EST Wednesday 3 September 2014 (issued every 30 minutes, with the page automatically refreshed every 10 minutes)

About weather observations | Map of weather stations | Latest weather observations for QLD | Other Formats
Station Details ID: 032037 Name: SOUTH JOHNSTONE EXP STN Lat: -17.61 Lon: 146.00 Height: 18.3 m
Data from the previous 72 hours. | See also: Recent months at South Johnstone
Date/Time
EST
Temp
°C
App
Temp
°C
Dew
Point
Rel
Hum
%
Delta-T
°C
Wind Press
QNH
hPa
Press
MSL
hPa
Rain
since 9 am
mm
Dir
 
Spd
km/h
Gust
km/h
Spd
kts
Gust
kts
03/11:30am 26.6 21.9 3.4 22 11.5 SSE 17 28 9 15 1015.2 - 0.0
03/11:00am 26.3 22.2 4.5 24 11.0 SSE 15 24 8 13 1015.7 - 0.0
03/10:30am 25.8 20.8 3.5 23 11.0 SSE 19 26 10 14 1016.1 - 0.0
03/10:00am 25.0 23.3 11.1 41 7.8 SSE 11 19 6 10 1016.4 - 0.0
03/09:30am 23.4 24.6 13.8 54 5.6 CALM 0 0 0 0 1016.6 - 0.0
03/09:00am 19.8 21.4 15.0 74 2.8 CALM 0 0 0 0 1016.7 1016.6 0.2
03/08:30am 17.4 17.7 13.5 78 2.2 WSW 4 11 2 6 1016.6 - 0.2
03/08:00am 14.7 14.0 11.9 83 1.5 WSW 7 11 4 6 1016.4 - 0.2
03/07:30am 13.2 13.4 11.9 92 0.7 NNE 2 11 1 6 1016.2 - 0.2
03/07:00am 11.9 10.9 11.1 95 0.4 W 7 13 4 7 1016.0 - 0.2
03/06:30am 11.1 10.2 10.7 97 0.2 W 6 11 3 6 1015.7 - 0.2
03/06:00am 11.5 10.4 10.7 95 0.4 W 7 11 4 6 1015.2 1015.1 0.2
03/05:30am 11.5 11.1 11.1 97 0.2 WSW 4 11 2 6 1015.1 - 0.2
03/05:00am 11.8 11.0 11.2 96 0.3 W 6 9 3 5 1014.8 - 0.2
03/04:30am 11.7 10.7 11.1 96 0.3 W 7 13 4 7 1014.6 - 0.2
03/04:00am 12.2 11.6 11.8 97 0.2 W 6 9 3 5 1014.6 - 0.2
03/03:30am 12.4 13.0 12.0 97 0.2 CALM 0 0 0 0 1014.8 - 0.2
03/03:00am 12.7 13.4 12.1 96 0.3 CALM 0 6 0 3 1015.0 1014.9 0.0
03/02:30am 13.0 12.0 12.4 96 0.3 W 9 13 5 7 1015.1 - 0.0
03/02:00am 13.8 13.4 13.1 96 0.4 WSW 7 11 4 6 1015.6 - 0.0
03/01:30am 13.8 14.4 13.1 96 0.4 WSW 2 11 1 6 1015.8 - 0.0
03/01:00am 13.7 13.6 13.2 97 0.3 SW 6 9 3 5 1015.8 - 0.0
03/12:30am 13.9 14.5 13.2 96 0.4 W 2 9 1 5 1016.0 - 0.0
03/12:00am 14.4 14.5 13.9 97 0.3 W 6 9 3 5 1016.1 1016.0 0.0
 
Date/Time
EST
Temp
°C
App
Temp
°C
Dew
Point
Rel
Hum
%
Delta-T
°C
Wind Press
QNH
hPa
Press
MSL
hPa
Rain
since 9 am
mm
Dir
 
Spd
km/h
Gust
km/h
Spd
kts
Gust
kts
02/11:30pm 14.6 14.5 13.9 96 0.4 W 7 13 4 7 1016.1 - 0.0
02/11:00pm 15.1 15.3 14.2 94 0.5 W 6 11 3 6 1016.2 - 0.0
02/10:30pm 16.0 16.5 15.0 94 0.6 W 6 9 3 5 1016.1 - 0.0
02/10:00pm 16.1 17.4 15.2 94 0.5 SW 2 7 1 4 1016.2 - 0.0
02/09:30pm 16.2 16.8 15.2 94 0.6 WSW 6 11 3 6 1016.2 - 0.0
02/09:00pm 16.5 17.9 15.5 94 0.6 W 2 6 1 3 1016.2 1016.1 0.0
02/08:30pm 16.9 17.1 15.7 93 0.7 W 9 13 5 7 1015.9 - 0.0
02/08:00pm 17.5 18.8 16.1 91 0.8 W 4 11 2 6 1015.7 - 0.0
02/07:30pm 18.0 19.8 16.5 91 0.9 NNE 2 7 1 4 1015.6 - 0.0
02/07:00pm 19.3 21.6 16.8 85 1.5 CALM 0 0 0 0 1015.4 - 0.0
02/06:30pm 19.8 22.0 16.5 81 2.0 CALM 0 0 0 0 1015.1 - 0.0
02/06:00pm 21.4 22.8 16.4 73 3.0 ENE 4 7 2 4 1014.9 1014.8 0.0
02/05:30pm 22.5 22.6 15.5 64 4.2 ENE 9 13 5 7 1015.0 - 0.0
02/05:00pm 23.2 22.3 14.8 59 5.0 ENE 13 17 7 9 1014.7 - 0.0
02/04:30pm 23.8 23.0 13.9 54 5.8 NE 11 15 6 8 1014.5 - 0.0
02/04:00pm 24.7 23.9 14.0 51 6.3 ENE 11 17 6 9 1014.4 - 0.0
02/03:30pm 24.8 22.8 12.7 47 7.0 NE 15 20 8 11 1014.3 - 0.0
02/03:00pm 25.6 23.5 13.7 47 7.0 NE 17 22 9 12 1014.5 1014.4 0.0
02/02:30pm 26.3 24.6 12.5 42 8.0 E 13 20 7 11 1014.9 - 0.0
02/02:00pm 25.9 24.4 13.0 44 7.5 E 13 19 7 10 1015.3 - 0.0
02/01:30pm 25.9 23.8 13.5 46 7.3 NE 17 22 9 12 1015.6 - 0.0
02/01:00pm 26.3 25.2 15.4 51 6.6 NNE 15 22 8 12 1015.9 - 0.0
02/12:30pm 26.2 25.6 12.3 42 8.0 S 7 13 4 7 1016.4 - 0.0
02/12:00pm 25.8 25.1 11.3 40 8.2 WSW 6 13 3 7 1017.0 1016.9 0.0
02/11:30am 25.4 25.9 12.8 45 7.3 SW 2 9 1 5 1017.6 - 0.0
02/11:00am 24.7 24.1 12.3 46 7.1 NE 7 11 4 6 1018.1 - 0.0
02/10:30am 24.1 23.1 12.4 48 6.7 ENE 9 13 5 7 1018.3 - 0.0
02/10:00am 23.3 23.6 13.3 53 5.8 SW 4 9 2 5 1018.8 - 0.0
02/09:30am 22.1 22.5 13.8 59 4.8 W 4 9 2 5 1018.9 - 0.0
02/09:00am 20.4 22.1 16.1 76 2.6 W 2 6 1 3 1018.9 1018.8 0.0
02/08:30am 17.6 18.1 15.0 85 1.5 SW 6 7 3 4 1018.9 - 0.0
02/08:00am 15.4 15.5 13.8 90 0.9 W 6 7 3 4 1018.5 - 0.0
02/07:30am 13.5 12.9 12.4 93 0.6 W 7 13 4 7 1018.4 - 0.0
02/07:00am 12.5 13.1 11.9 96 0.3 CALM 0 0 0 0 1018.3 - 0.0
02/06:30am 12.0 12.4 11.4 96 0.3 CALM 0 0 0 0 1018.1 - 0.0
02/06:00am 12.1 12.6 11.7 97 0.2 CALM 0 0 0 0 1017.9 1017.8 0.0
02/05:30am 12.5 11.8 11.9 96 0.3 W 7 9 4 5 1017.7 - 0.0
02/05:00am 12.3 11.5 11.7 96 0.3 W 7 11 4 6 1017.4 - 0.0
02/04:30am 12.1 10.9 11.5 96 0.3 W 9 15 5 8 1017.4 - 0.0
02/04:00am 12.3 11.5 11.7 96 0.3 W 7 11 4 6 1017.4 - 0.0
02/03:30am 12.7 12.2 12.1 96 0.3 WNW 6 9 3 5 1017.6 - 0.0
02/03:00am 12.9 12.4 12.2 95 0.4 W 6 9 3 5 1017.9 1017.8 0.0
02/02:30am 12.7 12.6 12.1 96 0.3 NW 4 11 2 6 1018.1 - 0.0
02/02:00am 12.8 13.5 12.2 96 0.3 CALM 0 6 0 3 1018.3 - 0.0
02/01:30am 13.1 13.9 12.4 95 0.4 CALM 0 0 0 0 1018.2 - 0.0
02/01:00am 13.2 12.8 12.5 95 0.4 WNW 6 9 3 5 1018.3 - 0.0
02/12:30am 13.7 13.2 12.8 94 0.5 W 7 11 4 6 1018.5 - 0.0
02/12:00am 13.8 14.7 12.9 94 0.5 CALM 0 0 0 0 1018.4 1018.3 0.0
 
Date/Time
EST
Temp
°C
App
Temp
°C
Dew
Point
Rel
Hum
%
Delta-T
°C
Wind Press
QNH
hPa
Press
MSL
hPa
Rain
since 9 am
mm
Dir
 
Spd
km/h
Gust
km/h
Spd
kts
Gust
kts
01/11:30pm 14.1 14.3 13.2 94 0.5 W 4 9 2 5 1018.7 - 0.0
01/11:00pm 14.7 14.7 13.6 93 0.6 WNW 6 7 3 4 1018.7 - 0.0
01/10:30pm 14.5 14.2 13.4 93 0.6 WNW 7 11 4 6 1018.6 - 0.0
01/10:00pm 14.9 14.7 13.6 92 0.7 W 7 11 4 6 1018.8 - 0.0
01/09:30pm 15.4 15.3 13.8 90 0.9 W 7 9 4 5 1018.8 - 0.0
01/09:00pm 15.8 15.9 13.8 88 1.1 WNW 6 9 3 5 1018.8 1018.7 0.0
01/08:30pm 16.3 16.0 14.4 88 1.1 W 9 13 5 7 1018.5 - 0.0
01/08:00pm 17.1 17.2 14.5 85 1.5 W 7 11 4 6 1018.1 - 0.0
01/07:30pm 17.3 18.9 14.9 86 1.4 CALM 0 2 0 1 1018.0 - 0.0
01/07:00pm 18.5 20.1 14.9 79 2.1 CALM 0 0 0 0 1017.7 - 0.0
01/06:30pm 19.5 20.7 13.7 69 3.3 CALM 0 0 0 0 1017.2 - 0.0
01/06:00pm 20.7 20.7 13.6 64 4.1 S 6 9 3 5 1016.9 1016.8 0.0
01/05:30pm 22.0 20.3 12.5 54 5.4 SE 13 17 7 9 1016.6 - 0.0
01/05:00pm 22.8 20.6 12.2 51 6.0 ESE 15 26 8 14 1016.3 - 0.0
01/04:30pm 23.4 21.5 11.7 47 6.6 SE 13 22 7 12 1016.1 - 0.0
01/04:00pm 24.3 21.7 10.8 42 7.5 ESE 15 24 8 13 1015.9 - 0.0
01/03:30pm 24.4 21.4 10.7 42 7.6 ESE 17 28 9 15 1015.9 - 0.0
01/03:00pm 24.9 22.0 11.0 41 7.8 ESE 17 26 9 14 1015.8 1015.7 0.0
01/02:30pm 24.9 21.3 8.5 35 8.8 ESE 17 28 9 15 1016.0 - 0.0
01/02:00pm 24.7 21.9 11.2 42 7.6 SE 17 28 9 15 1016.4 - 0.0
01/01:30pm 25.1 22.0 11.7 43 7.6 ESE 19 26 10 14 1016.9 - 0.0
01/01:00pm 25.0 22.8 12.0 44 7.4 SE 15 26 8 14 1017.2 - 0.0
01/12:30pm 25.0 23.1 12.9 47 7.0 ESE 15 32 8 17 1017.7 - 0.0
01/12:00pm 25.2 22.5 11.6 42 7.7 ESE 17 28 9 15 1018.2 1018.1 0.0
01/11:30am 24.5 22.9 12.7 47 6.8 SE 13 20 7 11 1018.6 - 0.0
01/11:00am 24.6 22.4 12.1 45 7.1 ESE 15 20 8 11 1019.0 - 0.0
01/10:30am 23.8 23.4 14.1 54 5.7 S 9 19 5 10 1019.3 - 0.0
01/10:00am 23.5 22.3 13.9 55 5.6 SSE 13 17 7 9 1019.4 - 0.0
01/09:30am 22.5 24.0 15.8 66 4.0 WSW 2 7 1 4 1019.5 - 0.0
01/09:00am 20.3 21.1 15.8 75 2.7 SW 6 9 3 5 1019.4 1019.3 0.0
01/08:30am 18.0 19.0 15.3 84 1.6 W 4 9 2 5 1018.9 - 0.0
01/08:00am 15.5 16.4 13.9 90 0.9 W 2 7 1 4 1018.5 - 0.0
01/07:30am 14.3 14.1 13.0 92 0.7 WSW 6 9 3 5 1018.1 - 0.0
01/07:00am 13.0 12.6 12.3 95 0.4 W 6 11 3 6 1017.7 - 0.0
01/06:30am 12.4 11.8 11.8 96 0.3 W 6 11 3 6 1017.3 - 0.0
01/06:00am 12.7 12.0 12.1 96 0.3 W 7 11 4 6 1017.2 1017.1 0.0
01/05:30am 12.6 11.9 12.0 96 0.3 W 7 17 4 9 1017.1 - 0.0
01/05:00am 12.5 11.0 11.9 96 0.3 W 11 15 6 8 1016.9 - 0.0
01/04:30am 12.5 13.1 11.9 96 0.3 CALM 0 0 0 0 1016.9 - 0.0
01/04:00am 12.7 13.4 12.1 96 0.3 CALM 0 0 0 0 1016.6 - 0.0
01/03:30am 13.0 12.4 12.4 96 0.3 W 7 13 4 7 1016.7 - 0.0
01/03:00am 13.4 12.9 12.8 96 0.3 W 7 9 4 5 1016.8 1016.7 0.0
01/02:30am 13.1 12.7 12.5 96 0.3 WNW 6 9 3 5 1017.1 - 0.0
01/02:00am 13.3 12.4 12.6 95 0.4 W 9 15 5 8 1017.1 - 0.0
01/01:30am 13.7 13.3 13.0 96 0.4 W 7 9 4 5 1017.5 - 0.0
01/01:00am 13.8 13.6 13.1 96 0.4 W 6 13 3 7 1017.7 - 0.0
01/12:30am 14.0 13.8 13.1 94 0.5 W 6 11 3 6 1017.8 - 0.0
01/12:00am 14.2 13.9 13.3 94 0.5 W 7 13 4 7 1018.0 1017.9 0.0
 
Date/Time
EST
Temp
°C
App
Temp
°C
Dew
Point
Rel
Hum
%
Delta-T
°C
Wind Press
QNH
hPa
Press
MSL
hPa
Rain
since 9 am
mm
Dir
 
Spd
km/h
Gust
km/h
Spd
kts
Gust
kts
31/11:30pm 14.6 14.4 13.7 94 0.5 W 7 9 4 5 1018.1 - 0.0
31/11:00pm 15.0 15.0 14.1 94 0.5 W 7 9 4 5 1018.2 - 0.0
31/10:30pm 15.3 15.3 14.2 93 0.6 W 7 11 4 6 1018.1 - 0.0
31/10:00pm 15.6 15.3 14.4 93 0.7 WNW 9 13 5 7 1018.1 - 0.0
31/09:30pm 16.0 16.2 14.6 91 0.8 W 7 13 4 7 1018.1 - 0.0
31/09:00pm 16.6 16.1 14.9 90 1.0 W 11 15 6 8 1018.0 1017.9 0.0
31/08:30pm 17.0 17.0 15.3 90 1.0 W 9 15 5 8 1017.8 - 0.0
31/08:00pm 17.5 18.5 15.4 87 1.2 W 4 9 2 5 1017.4 - 0.0
31/07:30pm 19.0 19.8 14.9 77 2.4 S 4 11 2 6 1017.0 - 0.0
31/07:00pm 19.5 21.1 14.9 75 2.7 CALM 0 2 0 1 1017.0 - 0.0
31/06:30pm 20.3 20.5 14.6 70 3.3 S 7 11 4 6 1016.5 - 0.0
31/06:00pm 20.8 20.3 14.8 68 3.5 SE 11 19 6 10 1016.1 1016.0 0.0
31/05:30pm 21.7 20.3 14.5 63 4.2 ESE 15 24 8 13 1015.7 - 0.0
31/05:00pm 22.4 20.5 13.0 55 5.4 SE 15 22 8 12 1015.3 - 0.0
31/04:30pm 23.0 21.1 13.1 53 5.7 ESE 15 22 8 12 1015.2 - 0.0
31/04:00pm 23.7 20.9 12.5 49 6.4 SE 19 28 10 15 1014.9 - 0.0
31/03:30pm 23.9 21.2 12.8 49 6.4 SE 19 28 10 15 1014.7 - 0.0
31/03:00pm 24.1 21.2 12.8 49 6.5 ESE 20 32 11 17 1014.8 1014.7 0.0
31/02:30pm 24.4 21.2 11.2 43 7.4 SE 19 30 10 16 1014.9 - 0.0
31/02:00pm 24.7 21.6 11.6 44 7.4 SE 19 32 10 17 1015.3 - 0.0
31/01:30pm 25.1 21.7 10.6 40 8.1 SSE 19 30 10 16 1015.6 - 0.0
31/01:00pm 24.8 21.2 10.6 40 7.9 SE 20 32 11 17 1016.0 - 0.0
31/12:30pm 24.9 21.5 11.4 42 7.6 ESE 20 28 11 15 1016.4 - 0.0
31/12:00pm 24.6 21.8 11.5 44 7.4 SSE 17 28 9 15 1016.8 1016.7 0.0

Other Formats:

Comma delimited format used in spreadsheet applications
http://www.bom.gov.au/fwo/IDQ60801/IDQ60801.95292.axf

JavaScript Object Notation format (JSON) in row-major order
http://www.bom.gov.au/fwo/IDQ60801/IDQ60801.95292.json